Terminal Aerodrome Forecast
Issued by NWS

Home | Current Version | Previous Version | Text Only | Print | Product List | Glossary On
Versions: 1 2 3 4 5 6 7 8 9 10 11 12 13 14 15 16 17 18 19 20 21 22 23 24 25 26 27 28 29 30
000
FTAK31 PAFA 181506 AAA
TAFAOM
TAF AMD
PAOM 181506Z 1815/1912 08006KT P6SM -SN OVC025
     FM181700 11015KT 6SM -SN BKN025
     FM182000 11030G40KT 1/4SM SN BLSN FG BKN007 OVC015
     FM190400 13024G32KT 1SM -SN BLSN BR BKN007 OVC015=

USA.gov is the U.S. government's official web portal to all federal, state and local government web resources and services.